sensor_id;sensor_type;location;lat;lon;timestamp;pressure;altitude;pressure_sealevel;temperature;humidity
46682;BME280;34101;53.430;-2.224;2023-12-04T00:00:07;99870.70;;;5.95;71.07
46682;BME280;34101;53.430;-2.224;2023-12-04T00:02:35;99864.71;;;5.90;71.45
46682;BME280;34101;53.430;-2.224;2023-12-04T00:05:04;99861.67;;;5.96;71.18
46682;BME280;34101;53.430;-2.224;2023-12-04T00:07:32;99857.31;;;5.92;71.06
46682;BME280;34101;53.430;-2.224;2023-12-04T00:10:00;99853.84;;;5.93;71.12
46682;BME280;34101;53.430;-2.224;2023-12-04T00:12:29;99849.46;;;5.92;71.56
46682;BME280;34101;53.430;-2.224;2023-12-04T00:14:57;99845.51;;;5.89;71.58
46682;BME280;34101;53.430;-2.224;2023-12-04T00:17:24;99847.14;;;5.93;71.94
46682;BME280;34101;53.430;-2.224;2023-12-04T00:19:51;99842.63;;;5.86;72.05
46682;BME280;34101;53.430;-2.224;2023-12-04T00:22:19;99838.15;;;5.90;72.13
46682;BME280;34101;53.430;-2.224;2023-12-04T00:24:46;99833.52;;;5.86;71.96
46682;BME280;34101;53.430;-2.224;2023-12-04T00:27:14;99831.52;;;5.83;72.59
46682;BME280;34101;53.430;-2.224;2023-12-04T00:29:42;99830.34;;;5.79;72.59
46682;BME280;34101;53.430;-2.224;2023-12-04T00:32:09;99825.74;;;5.73;72.65
46682;BME280;34101;53.430;-2.224;2023-12-04T00:34:36;99821.47;;;5.71;72.47
46682;BME280;34101;53.430;-2.224;2023-12-04T00:37:04;99815.63;;;5.65;72.88
46682;BME280;34101;53.430;-2.224;2023-12-04T00:39:31;99808.36;;;5.66;73.36
46682;BME280;34101;53.430;-2.224;2023-12-04T00:41:59;99803.03;;;5.65;73.71
46682;BME280;34101;53.430;-2.224;2023-12-04T00:44:29;99799.91;;;5.59;73.12
46682;BME280;34101;53.430;-2.224;2023-12-04T00:46:56;99793.62;;;5.53;73.61
46682;BME280;34101;53.430;-2.224;2023-12-04T00:49:23;99784.58;;;5.47;73.68
46682;BME280;34101;53.430;-2.224;2023-12-04T00:51:51;99777.94;;;5.46;73.71
46682;BME280;34101;53.430;-2.224;2023-12-04T00:54:19;99775.11;;;5.41;73.48
46682;BME280;34101;53.430;-2.224;2023-12-04T00:56:46;99766.76;;;5.49;74.14
46682;BME280;34101;53.430;-2.224;2023-12-04T00:59:14;99757.04;;;5.46;73.92
46682;BME280;34101;53.430;-2.224;2023-12-04T01:01:41;99752.36;;;5.42;74.20
46682;BME280;34101;53.430;-2.224;2023-12-04T01:04:08;99748.16;;;5.47;74.28
46682;BME280;34101;53.430;-2.224;2023-12-04T01:06:36;99747.25;;;5.52;74.53
46682;BME280;34101;53.430;-2.224;2023-12-04T01:09:03;99744.58;;;5.54;74.57
46682;BME280;34101;53.430;-2.224;2023-12-04T01:11:31;99746.02;;;5.47;74.32
46682;BME280;34101;53.430;-2.224;2023-12-04T01:13:59;99740.58;;;5.42;74.59
46682;BME280;34101;53.430;-2.224;2023-12-04T01:16:26;99733.36;;;5.38;74.60
46682;BME280;34101;53.430;-2.224;2023-12-04T01:18:53;99727.49;;;5.35;74.75
46682;BME280;34101;53.430;-2.224;2023-12-04T01:21:21;99725.75;;;5.34;75.02
46682;BME280;34101;53.430;-2.224;2023-12-04T01:23:48;99719.10;;;5.37;75.10
46682;BME280;34101;53.430;-2.224;2023-12-04T01:26:16;99717.80;;;5.41;75.05
46682;BME280;34101;53.430;-2.224;2023-12-04T01:28:43;99709.68;;;5.45;74.98
46682;BME280;34101;53.430;-2.224;2023-12-04T01:31:11;99706.41;;;5.46;74.80
46682;BME280;34101;53.430;-2.224;2023-12-04T01:33:38;99703.71;;;5.37;75.09
46682;BME280;34101;53.430;-2.224;2023-12-04T01:36:06;99696.08;;;5.42;75.06
46682;BME280;34101;53.430;-2.224;2023-12-04T01:38:34;99692.52;;;5.49;75.22
46682;BME280;34101;53.430;-2.224;2023-12-04T01:41:01;99694.56;;;5.53;75.04
46682;BME280;34101;53.430;-2.224;2023-12-04T01:43:29;99693.92;;;5.61;74.94
46682;BME280;34101;53.430;-2.224;2023-12-04T01:45:57;99690.33;;;5.63;74.66
46682;BME280;34101;53.430;-2.224;2023-12-04T01:48:28;99691.64;;;5.56;74.65
46682;BME280;34101;53.430;-2.224;2023-12-04T01:50:57;99689.72;;;5.56;74.63
46682;BME280;34101;53.430;-2.224;2023-12-04T01:53:25;99683.57;;;5.44;74.85
46682;BME280;34101;53.430;-2.224;2023-12-04T01:55:53;99680.07;;;5.51;74.76
46682;BME280;34101;53.430;-2.224;2023-12-04T01:58:21;99678.33;;;5.63;74.68
46682;BME280;34101;53.430;-2.224;2023-12-04T02:00:49;99679.69;;;5.73;74.51
46682;BME280;34101;53.430;-2.224;2023-12-04T02:03:16;99680.40;;;5.73;74.48
46682;BME280;34101;53.430;-2.224;2023-12-04T02:05:44;99682.42;;;5.72;74.37
46682;BME280;34101;53.430;-2.224;2023-12-04T02:08:11;99681.97;;;5.67;74.46
46682;BME280;34101;53.430;-2.224;2023-12-04T02:10:39;99686.16;;;5.62;74.71
46682;BME280;34101;53.430;-2.224;2023-12-04T02:13:06;99684.39;;;5.61;74.62
46682;BME280;34101;53.430;-2.224;2023-12-04T02:15:34;99681.85;;;5.52;75.03
46682;BME280;34101;53.430;-2.224;2023-12-04T02:18:03;99684.78;;;5.49;75.27
46682;BME280;34101;53.430;-2.224;2023-12-04T02:20:32;99683.00;;;5.49;75.30
46682;BME280;34101;53.430;-2.224;2023-12-04T02:23:00;99682.33;;;5.46;75.47
46682;BME280;34101;53.430;-2.224;2023-12-04T02:25:29;99671.08;;;5.45;75.80
46682;BME280;34101;53.430;-2.224;2023-12-04T02:27:58;99669.80;;;5.41;75.85
46682;BME280;34101;53.430;-2.224;2023-12-04T02:30:28;99665.74;;;5.38;76.21
46682;BME280;34101;53.430;-2.224;2023-12-04T02:32:58;99665.68;;;5.35;76.32
46682;BME280;34101;53.430;-2.224;2023-12-04T02:35:30;99655.06;;;5.36;76.37
46682;BME280;34101;53.430;-2.224;2023-12-04T02:38:03;99652.51;;;5.35;76.52
46682;BME280;34101;53.430;-2.224;2023-12-04T02:40:31;99650.94;;;5.41;76.63
46682;BME280;34101;53.430;-2.224;2023-12-04T02:42:59;99649.14;;;5.39;76.49
46682;BME280;34101;53.430;-2.224;2023-12-04T02:45:26;99646.95;;;5.43;76.69
46682;BME280;34101;53.430;-2.224;2023-12-04T02:47:54;99648.20;;;5.53;76.66
46682;BME280;34101;53.430;-2.224;2023-12-04T02:50:21;99650.91;;;5.63;76.69
46682;BME280;34101;53.430;-2.224;2023-12-04T02:52:49;99646.86;;;5.65;76.55
46682;BME280;34101;53.430;-2.224;2023-12-04T02:55:17;99645.73;;;5.54;76.25
46682;BME280;34101;53.430;-2.224;2023-12-04T02:57:45;99644.12;;;5.63;76.21
46682;BME280;34101;53.430;-2.224;2023-12-04T03:00:13;99643.74;;;5.60;76.48
46682;BME280;34101;53.430;-2.224;2023-12-04T03:02:41;99640.64;;;5.64;76.51
46682;BME280;34101;53.430;-2.224;2023-12-04T03:05:09;99633.40;;;5.72;76.77
46682;BME280;34101;53.430;-2.224;2023-12-04T03:07:36;99627.07;;;5.75;76.72
46682;BME280;34101;53.430;-2.224;2023-12-04T03:10:05;99625.44;;;5.75;76.84
46682;BME280;34101;53.430;-2.224;2023-12-04T03:12:32;99621.77;;;5.79;76.74
46682;BME280;34101;53.430;-2.224;2023-12-04T03:14:59;99617.43;;;5.75;76.82
46682;BME280;34101;53.430;-2.224;2023-12-04T03:17:27;99613.72;;;5.74;76.71
46682;BME280;34101;53.430;-2.224;2023-12-04T03:19:55;99601.16;;;5.71;76.55
46682;BME280;34101;53.430;-2.224;2023-12-04T03:22:23;99597.89;;;5.72;76.73
46682;BME280;34101;53.430;-2.224;2023-12-04T03:24:50;99595.58;;;5.75;76.59
46682;BME280;34101;53.430;-2.224;2023-12-04T03:27:17;99593.53;;;5.81;76.87
46682;BME280;34101;53.430;-2.224;2023-12-04T03:29:45;99591.20;;;5.86;76.61
46682;BME280;34101;53.430;-2.224;2023-12-04T03:32:12;99585.44;;;5.79;76.29
46682;BME280;34101;53.430;-2.224;2023-12-04T03:34:40;99578.97;;;5.81;76.22
46682;BME280;34101;53.430;-2.224;2023-12-04T03:37:07;99579.52;;;5.79;76.17
46682;BME280;34101;53.430;-2.224;2023-12-04T03:39:35;99568.37;;;5.77;76.55
46682;BME280;34101;53.430;-2.224;2023-12-04T03:42:03;99563.54;;;5.74;76.40
46682;BME280;34101;53.430;-2.224;2023-12-04T03:44:31;99558.33;;;5.78;76.55
46682;BME280;34101;53.430;-2.224;2023-12-04T03:46:58;99559.93;;;5.78;76.57
46682;BME280;34101;53.430;-2.224;2023-12-04T03:49:26;99551.85;;;5.84;76.64
46682;BME280;34101;53.430;-2.224;2023-12-04T03:51:53;99549.12;;;5.96;76.52
46682;BME280;34101;53.430;-2.224;2023-12-04T03:54:21;99546.60;;;5.99;76.48
46682;BME280;34101;53.430;-2.224;2023-12-04T03:56:48;99542.64;;;5.98;76.12
46682;BME280;34101;53.430;-2.224;2023-12-04T03:59:16;99541.47;;;6.02;76.72
46682;BME280;34101;53.430;-2.224;2023-12-04T04:01:43;99532.71;;;5.98;76.57
46682;BME280;34101;53.430;-2.224;2023-12-04T04:04:11;99533.11;;;6.04;76.68
46682;BME280;34101;53.430;-2.224;2023-12-04T04:06:38;99527.45;;;6.10;76.46
46682;BME280;34101;53.430;-2.224;2023-12-04T04:09:05;99528.37;;;6.17;76.63
46682;BME280;34101;53.430;-2.224;2023-12-04T04:11:33;99528.44;;;6.22;76.45
46682;BME280;34101;53.430;-2.224;2023-12-04T04:14:01;99520.79;;;6.19;76.28
46682;BME280;34101;53.430;-2.224;2023-12-04T04:16:28;99518.78;;;6.21;76.56
46682;BME280;34101;53.430;-2.224;2023-12-04T04:18:56;99513.56;;;6.25;76.56
46682;BME280;34101;53.430;-2.224;2023-12-04T04:21:23;99510.24;;;6.26;76.21
46682;BME280;34101;53.430;-2.224;2023-12-04T04:23:51;99504.89;;;6.31;76.04
46682;BME280;34101;53.430;-2.224;2023-12-04T04:26:18;99505.13;;;6.37;76.01
46682;BME280;34101;53.430;-2.224;2023-12-04T04:28:46;99505.28;;;6.41;75.36
46682;BME280;34101;53.430;-2.224;2023-12-04T04:31:13;99502.26;;;6.32;75.52
46682;BME280;34101;53.430;-2.224;2023-12-04T04:33:41;99497.08;;;6.29;75.36
46682;BME280;34101;53.430;-2.224;2023-12-04T04:36:10;99492.39;;;6.25;75.79
46682;BME280;34101;53.430;-2.224;2023-12-04T04:38:39;99488.18;;;6.23;76.18
46682;BME280;34101;53.430;-2.224;2023-12-04T04:41:07;99484.90;;;6.18;76.49
46682;BME280;34101;53.430;-2.224;2023-12-04T04:43:39;99484.67;;;6.21;76.65
46682;BME280;34101;53.430;-2.224;2023-12-04T04:46:07;99477.62;;;6.24;76.53
46682;BME280;34101;53.430;-2.224;2023-12-04T04:48:34;99474.43;;;6.27;76.43
46682;BME280;34101;53.430;-2.224;2023-12-04T04:51:02;99468.84;;;6.29;76.46
46682;BME280;34101;53.430;-2.224;2023-12-04T04:53:30;99467.78;;;6.35;76.28
46682;BME280;34101;53.430;-2.224;2023-12-04T04:55:58;99462.00;;;6.36;76.22
46682;BME280;34101;53.430;-2.224;2023-12-04T04:58:25;99456.41;;;6.38;76.43
46682;BME280;34101;53.430;-2.224;2023-12-04T05:00:53;99458.26;;;6.40;76.27
46682;BME280;34101;53.430;-2.224;2023-12-04T05:03:21;99454.71;;;6.45;76.16
46682;BME280;34101;53.430;-2.224;2023-12-04T05:05:49;99450.71;;;6.51;76.20
46682;BME280;34101;53.430;-2.224;2023-12-04T05:08:16;99452.40;;;6.58;76.24
46682;BME280;34101;53.430;-2.224;2023-12-04T05:10:44;99452.87;;;6.60;75.97
46682;BME280;34101;53.430;-2.224;2023-12-04T05:13:12;99451.67;;;6.54;75.33
46682;BME280;34101;53.430;-2.224;2023-12-04T05:15:39;99448.94;;;6.56;75.66
46682;BME280;34101;53.430;-2.224;2023-12-04T05:18:06;99448.92;;;6.57;75.13
46682;BME280;34101;53.430;-2.224;2023-12-04T05:20:34;99444.85;;;6.57;75.64
46682;BME280;34101;53.430;-2.224;2023-12-04T05:23:01;99442.34;;;6.66;75.57
46682;BME280;34101;53.430;-2.224;2023-12-04T05:25:29;99441.16;;;6.70;75.47
46682;BME280;34101;53.430;-2.224;2023-12-04T05:27:57;99442.25;;;6.67;75.13
46682;BME280;34101;53.430;-2.224;2023-12-04T05:30:24;99441.77;;;6.65;75.04
46682;BME280;34101;53.430;-2.224;2023-12-04T05:32:52;99440.65;;;6.68;75.50
46682;BME280;34101;53.430;-2.224;2023-12-04T05:35:19;99434.73;;;6.74;75.58
46682;BME280;34101;53.430;-2.224;2023-12-04T05:37:47;99432.51;;;6.78;75.63
46682;BME280;34101;53.430;-2.224;2023-12-04T05:40:15;99436.03;;;6.83;75.58
46682;BME280;34101;53.430;-2.224;2023-12-04T05:42:42;99436.81;;;6.88;75.64
46682;BME280;34101;53.430;-2.224;2023-12-04T05:45:09;99435.73;;;6.90;75.46
46682;BME280;34101;53.430;-2.224;2023-12-04T05:47:37;99435.92;;;6.90;75.52
46682;BME280;34101;53.430;-2.224;2023-12-04T05:50:06;99432.87;;;6.95;75.51
46682;BME280;34101;53.430;-2.224;2023-12-04T05:52:34;99429.84;;;6.99;75.48
46682;BME280;34101;53.430;-2.224;2023-12-04T05:55:02;99425.79;;;6.95;75.25
46682;BME280;34101;53.430;-2.224;2023-12-04T05:57:29;99419.67;;;6.99;75.34
46682;BME280;34101;53.430;-2.224;2023-12-04T05:59:57;99416.05;;;7.02;74.98
46682;BME280;34101;53.430;-2.224;2023-12-04T06:02:24;99414.59;;;6.95;75.35
46682;BME280;34101;53.430;-2.224;2023-12-04T06:04:51;99412.04;;;6.94;75.03
46682;BME280;34101;53.430;-2.224;2023-12-04T06:07:19;99408.79;;;6.94;75.09
46682;BME280;34101;53.430;-2.224;2023-12-04T06:09:46;99401.00;;;6.93;75.48
46682;BME280;34101;53.430;-2.224;2023-12-04T06:12:14;99399.95;;;6.93;75.04
46682;BME280;34101;53.430;-2.224;2023-12-04T06:14:41;99396.95;;;6.92;75.53
46682;BME280;34101;53.430;-2.224;2023-12-04T06:17:09;99394.31;;;6.93;75.61
46682;BME280;34101;53.430;-2.224;2023-12-04T06:19:36;99390.58;;;6.94;75.71
46682;BME280;34101;53.430;-2.224;2023-12-04T06:22:04;99388.70;;;6.95;75.64
46682;BME280;34101;53.430;-2.224;2023-12-04T06:24:32;99386.69;;;6.99;75.91
46682;BME280;34101;53.430;-2.224;2023-12-04T06:27:00;99382.58;;;7.00;75.69
46682;BME280;34101;53.430;-2.224;2023-12-04T06:29:28;99376.20;;;7.00;75.60
46682;BME280;34101;53.430;-2.224;2023-12-04T06:31:57;99377.40;;;6.99;75.57
46682;BME280;34101;53.430;-2.224;2023-12-04T06:34:25;99371.52;;;7.03;75.92
46682;BME280;34101;53.430;-2.224;2023-12-04T06:36:53;99365.89;;;6.91;74.98
46682;BME280;34101;53.430;-2.224;2023-12-04T06:39:22;99366.53;;;6.92;75.84
46682;BME280;34101;53.430;-2.224;2023-12-04T06:41:52;99363.77;;;6.93;75.43
46682;BME280;34101;53.430;-2.224;2023-12-04T06:44:20;99359.05;;;6.91;75.81
46682;BME280;34101;53.430;-2.224;2023-12-04T06:46:49;99356.91;;;6.98;75.99
46682;BME280;34101;53.430;-2.224;2023-12-04T06:49:19;99357.80;;;7.04;75.94
46682;BME280;34101;53.430;-2.224;2023-12-04T06:51:47;99354.01;;;7.00;75.46
46682;BME280;34101;53.430;-2.224;2023-12-04T06:54:14;99352.14;;;6.92;75.55
46682;BME280;34101;53.430;-2.224;2023-12-04T06:56:42;99351.47;;;6.97;75.49
46682;BME280;34101;53.430;-2.224;2023-12-04T06:59:09;99351.02;;;6.93;75.58
46682;BME280;34101;53.430;-2.224;2023-12-04T07:01:37;99352.93;;;6.91;75.59
46682;BME280;34101;53.430;-2.224;2023-12-04T07:04:06;99353.22;;;6.94;75.83
46682;BME280;34101;53.430;-2.224;2023-12-04T07:06:35;99350.17;;;6.88;75.48
46682;BME280;34101;53.430;-2.224;2023-12-04T07:09:04;99354.93;;;6.95;75.87
46682;BME280;34101;53.430;-2.224;2023-12-04T07:11:32;99351.78;;;6.97;75.73
46682;BME280;34101;53.430;-2.224;2023-12-04T07:14:00;99353.48;;;7.01;75.64
46682;BME280;34101;53.430;-2.224;2023-12-04T07:16:28;99357.37;;;7.04;75.66
46682;BME280;34101;53.430;-2.224;2023-12-04T07:18:56;99356.63;;;7.06;75.73
46682;BME280;34101;53.430;-2.224;2023-12-04T07:21:23;99354.04;;;7.04;75.66
46682;BME280;34101;53.430;-2.224;2023-12-04T07:23:51;99355.35;;;7.06;75.72
46682;BME280;34101;53.430;-2.224;2023-12-04T07:26:19;99353.58;;;7.05;75.45
46682;BME280;34101;53.430;-2.224;2023-12-04T07:28:46;99353.44;;;7.06;75.60
46682;BME280;34101;53.430;-2.224;2023-12-04T07:31:14;99350.54;;;7.07;75.60
46682;BME280;34101;53.430;-2.224;2023-12-04T07:33:41;99349.63;;;7.09;75.52
46682;BME280;34101;53.430;-2.224;2023-12-04T07:36:09;99346.40;;;7.11;75.60
46682;BME280;34101;53.430;-2.224;2023-12-04T07:38:36;99346.85;;;7.06;75.68
46682;BME280;34101;53.430;-2.224;2023-12-04T07:41:04;99346.36;;;7.02;75.64
46682;BME280;34101;53.430;-2.224;2023-12-04T07:43:32;99344.55;;;7.01;75.88
46682;BME280;34101;53.430;-2.224;2023-12-04T07:45:59;99340.36;;;7.00;76.18
46682;BME280;34101;53.430;-2.224;2023-12-04T07:48:27;99337.94;;;7.02;76.04
46682;BME280;34101;53.430;-2.224;2023-12-04T07:50:55;99336.45;;;7.00;75.99
46682;BME280;34101;53.430;-2.224;2023-12-04T07:53:23;99334.92;;;7.02;76.01
46682;BME280;34101;53.430;-2.224;2023-12-04T07:55:50;99333.55;;;6.95;75.79
46682;BME280;34101;53.430;-2.224;2023-12-04T07:58:17;99338.08;;;6.97;75.72
46682;BME280;34101;53.430;-2.224;2023-12-04T08:00:45;99339.26;;;6.91;75.93
46682;BME280;34101;53.430;-2.224;2023-12-04T08:03:13;99344.40;;;6.96;76.12
46682;BME280;34101;53.430;-2.224;2023-12-04T08:05:41;99345.93;;;6.97;76.06
46682;BME280;34101;53.430;-2.224;2023-12-04T08:08:08;99344.68;;;6.98;76.08
46682;BME280;34101;53.430;-2.224;2023-12-04T08:10:37;99344.64;;;6.92;75.93
46682;BME280;34101;53.430;-2.224;2023-12-04T08:13:05;99347.09;;;6.94;75.89
46682;BME280;34101;53.430;-2.224;2023-12-04T08:15:32;99352.80;;;6.92;76.10
46682;BME280;34101;53.430;-2.224;2023-12-04T08:18:01;99357.15;;;6.96;76.23
46682;BME280;34101;53.430;-2.224;2023-12-04T08:20:29;99360.15;;;6.93;76.24
46682;BME280;34101;53.430;-2.224;2023-12-04T08:22:56;99358.80;;;6.94;75.88
46682;BME280;34101;53.430;-2.224;2023-12-04T08:25:23;99358.07;;;6.94;76.05
46682;BME280;34101;53.430;-2.224;2023-12-04T08:27:51;99358.38;;;7.00;76.15
46682;BME280;34101;53.430;-2.224;2023-12-04T08:30:19;99355.90;;;7.00;75.91
46682;BME280;34101;53.430;-2.224;2023-12-04T08:32:46;99357.35;;;7.04;75.86
46682;BME280;34101;53.430;-2.224;2023-12-04T08:35:13;99358.41;;;7.06;75.72
46682;BME280;34101;53.430;-2.224;2023-12-04T08:37:41;99359.21;;;7.03;75.56
46682;BME280;34101;53.430;-2.224;2023-12-04T08:40:10;99356.38;;;7.05;75.71
46682;BME280;34101;53.430;-2.224;2023-12-04T08:42:38;99360.05;;;7.03;75.22
46682;BME280;34101;53.430;-2.224;2023-12-04T08:45:06;99360.97;;;6.98;75.36
46682;BME280;34101;53.430;-2.224;2023-12-04T08:47:37;99363.16;;;7.11;75.96
46682;BME280;34101;53.430;-2.224;2023-12-04T08:50:05;99364.27;;;7.18;75.68
46682;BME280;34101;53.430;-2.224;2023-12-04T08:52:32;99362.75;;;7.22;75.16
46682;BME280;34101;53.430;-2.224;2023-12-04T08:55:00;99362.99;;;7.20;75.73
46682;BME280;34101;53.430;-2.224;2023-12-04T08:57:28;99362.05;;;7.19;75.46
46682;BME280;34101;53.430;-2.224;2023-12-04T08:59:55;99360.27;;;7.25;75.40
46682;BME280;34101;53.430;-2.224;2023-12-04T09:02:23;99358.26;;;7.28;75.20
46682;BME280;34101;53.430;-2.224;2023-12-04T09:04:50;99360.82;;;7.28;75.13
46682;BME280;34101;53.430;-2.224;2023-12-04T09:07:18;99359.77;;;7.27;75.39
46682;BME280;34101;53.430;-2.224;2023-12-04T09:09:45;99358.77;;;7.21;75.31
46682;BME280;34101;53.430;-2.224;2023-12-04T09:12:13;99361.11;;;7.22;75.51
46682;BME280;34101;53.430;-2.224;2023-12-04T09:14:41;99357.70;;;7.21;75.67
46682;BME280;34101;53.430;-2.224;2023-12-04T09:17:09;99358.31;;;7.19;75.88
46682;BME280;34101;53.430;-2.224;2023-12-04T09:19:37;99359.38;;;7.21;76.10
46682;BME280;34101;53.430;-2.224;2023-12-04T09:22:05;99358.60;;;7.24;76.53
46682;BME280;34101;53.430;-2.224;2023-12-04T09:24:32;99359.99;;;7.25;76.22
46682;BME280;34101;53.430;-2.224;2023-12-04T09:26:59;99363.95;;;7.26;76.28
46682;BME280;34101;53.430;-2.224;2023-12-04T09:29:27;99365.25;;;7.29;76.48
46682;BME280;34101;53.430;-2.224;2023-12-04T09:31:55;99367.08;;;7.28;76.43
46682;BME280;34101;53.430;-2.224;2023-12-04T09:34:23;99367.78;;;7.33;76.32
46682;BME280;34101;53.430;-2.224;2023-12-04T09:36:50;99369.73;;;7.41;76.42
46682;BME280;34101;53.430;-2.224;2023-12-04T09:39:18;99367.46;;;7.50;76.37
46682;BME280;34101;53.430;-2.224;2023-12-04T09:41:46;99364.47;;;7.54;76.09
46682;BME280;34101;53.430;-2.224;2023-12-04T09:44:15;99364.07;;;7.62;76.03
46682;BME280;34101;53.430;-2.224;2023-12-04T09:46:44;99365.50;;;7.69;75.81
46682;BME280;34101;53.430;-2.224;2023-12-04T09:49:12;99367.20;;;7.66;75.82
46682;BME280;34101;53.430;-2.224;2023-12-04T09:51:40;99365.93;;;7.68;75.39
46682;BME280;34101;53.430;-2.224;2023-12-04T09:54:08;99360.39;;;7.55;75.15
46682;BME280;34101;53.430;-2.224;2023-12-04T09:56:36;99361.93;;;7.62;75.26
46682;BME280;34101;53.430;-2.224;2023-12-04T09:59:06;99358.52;;;7.68;74.96
46682;BME280;34101;53.430;-2.224;2023-12-04T10:01:36;99360.68;;;7.66;74.82
46682;BME280;34101;53.430;-2.224;2023-12-04T10:04:04;99363.76;;;7.76;75.24
46682;BME280;34101;53.430;-2.224;2023-12-04T10:06:32;99360.94;;;7.81;74.73
46682;BME280;34101;53.430;-2.224;2023-12-04T10:09:01;99364.10;;;7.75;74.46
46682;BME280;34101;53.430;-2.224;2023-12-04T10:11:29;99363.11;;;7.84;75.01
46682;BME280;34101;53.430;-2.224;2023-12-04T10:13:57;99366.20;;;7.94;75.07
46682;BME280;34101;53.430;-2.224;2023-12-04T10:16:33;99367.76;;;7.90;74.74
46682;BME280;34101;53.430;-2.224;2023-12-04T10:19:19;99366.92;;;7.85;74.86
46682;BME280;34101;53.430;-2.224;2023-12-04T10:21:47;99365.84;;;7.92;75.11
46682;BME280;34101;53.430;-2.224;2023-12-04T10:24:34;99361.70;;;8.04;75.13
46682;BME280;34101;53.430;-2.224;2023-12-04T10:27:02;99363.18;;;8.07;74.96
46682;BME280;34101;53.430;-2.224;2023-12-04T10:29:40;99361.27;;;8.08;74.84
46682;BME280;34101;53.430;-2.224;2023-12-04T10:32:12;99362.24;;;8.12;74.70
46682;BME280;34101;53.430;-2.224;2023-12-04T10:34:41;99360.23;;;8.15;74.71
46682;BME280;34101;53.430;-2.224;2023-12-04T10:37:10;99361.76;;;8.23;74.73
46682;BME280;34101;53.430;-2.224;2023-12-04T10:39:46;99366.09;;;8.31;74.37
46682;BME280;34101;53.430;-2.224;2023-12-04T10:42:23;99358.78;;;8.34;74.37
46682;BME280;34101;53.430;-2.224;2023-12-04T10:44:52;99357.21;;;8.36;74.36
46682;BME280;34101;53.430;-2.224;2023-12-04T10:47:23;99355.43;;;8.54;74.21
46682;BME280;34101;53.430;-2.224;2023-12-04T10:49:51;99351.91;;;8.62;73.89
46682;BME280;34101;53.430;-2.224;2023-12-04T10:52:19;99355.38;;;8.67;73.68
46682;BME280;34101;53.430;-2.224;2023-12-04T10:54:47;99351.22;;;8.64;73.44
46682;BME280;34101;53.430;-2.224;2023-12-04T10:57:21;99347.24;;;8.63;73.32
46682;BME280;34101;53.430;-2.224;2023-12-04T10:59:53;99348.64;;;8.62;73.50
46682;BME280;34101;53.430;-2.224;2023-12-04T11:02:26;99349.62;;;8.62;73.95
46682;BME280;34101;53.430;-2.224;2023-12-04T11:04:58;99346.57;;;8.53;73.52
46682;BME280;34101;53.430;-2.224;2023-12-04T11:07:30;99345.34;;;8.45;73.96
46682;BME280;34101;53.430;-2.224;2023-12-04T11:10:01;99347.89;;;8.51;73.66
46682;BME280;34101;53.430;-2.224;2023-12-04T11:12:31;99343.72;;;8.44;74.06
46682;BME280;34101;53.430;-2.224;2023-12-04T11:15:02;99346.77;;;8.49;74.04
46682;BME280;34101;53.430;-2.224;2023-12-04T11:17:35;99344.26;;;8.41;73.81
46682;BME280;34101;53.430;-2.224;2023-12-04T11:20:09;99343.61;;;8.35;74.09
46682;BME280;34101;53.430;-2.224;2023-12-04T11:22:44;99347.04;;;8.31;73.91
46682;BME280;34101;53.430;-2.224;2023-12-04T11:25:13;99345.92;;;8.13;74.35
46682;BME280;34101;53.430;-2.224;2023-12-04T11:27:40;99344.28;;;8.21;74.41
46682;BME280;34101;53.430;-2.224;2023-12-04T11:30:09;99347.79;;;8.23;74.37
46682;BME280;34101;53.430;-2.224;2023-12-04T11:32:44;99343.85;;;8.20;74.36
46682;BME280;34101;53.430;-2.224;2023-12-04T11:35:14;99341.97;;;8.12;74.14
46682;BME280;34101;53.430;-2.224;2023-12-04T11:37:43;99344.41;;;8.07;74.28
46682;BME280;34101;53.430;-2.224;2023-12-04T11:40:12;99344.38;;;8.06;74.25
46682;BME280;34101;53.430;-2.224;2023-12-04T11:42:39;99341.40;;;8.07;74.32
46682;BME280;34101;53.430;-2.224;2023-12-04T11:45:08;99345.67;;;8.08;74.27
46682;BME280;34101;53.430;-2.224;2023-12-04T11:47:54;99345.95;;;8.19;74.41
46682;BME280;34101;53.430;-2.224;2023-12-04T11:50:24;99344.40;;;8.29;74.63
46682;BME280;34101;53.430;-2.224;2023-12-04T11:52:52;99337.90;;;8.34;74.40
46682;BME280;34101;53.430;-2.224;2023-12-04T11:55:22;99333.34;;;8.34;74.15
46682;BME280;34101;53.430;-2.224;2023-12-04T11:57:51;99334.56;;;8.34;74.21
46682;BME280;34101;53.430;-2.224;2023-12-04T12:00:21;99335.59;;;8.39;74.01
46682;BME280;34101;53.430;-2.224;2023-12-04T12:03:02;99336.66;;;8.36;73.85
46682;BME280;34101;53.430;-2.224;2023-12-04T12:05:31;99338.83;;;8.38;74.13
46682;BME280;34101;53.430;-2.224;2023-12-04T12:08:01;99337.25;;;8.31;73.70
46682;BME280;34101;53.430;-2.224;2023-12-04T12:10:30;99338.85;;;8.31;73.72
46682;BME280;34101;53.430;-2.224;2023-12-04T12:12:58;99335.88;;;8.24;74.01
46682;BME280;34101;53.430;-2.224;2023-12-04T12:15:26;99337.03;;;8.24;74.31
46682;BME280;34101;53.430;-2.224;2023-12-04T12:17:53;99339.28;;;8.23;74.48
46682;BME280;34101;53.430;-2.224;2023-12-04T12:20:20;99338.25;;;8.20;74.39
46682;BME280;34101;53.430;-2.224;2023-12-04T12:22:49;99343.08;;;8.17;74.57
46682;BME280;34101;53.430;-2.224;2023-12-04T12:25:17;99342.76;;;8.09;74.41
46682;BME280;34101;53.430;-2.224;2023-12-04T12:27:45;99337.86;;;8.11;74.76
46682;BME280;34101;53.430;-2.224;2023-12-04T12:30:13;99338.27;;;8.12;74.75
46682;BME280;34101;53.430;-2.224;2023-12-04T12:32:41;99341.83;;;8.12;74.94
46682;BME280;34101;53.430;-2.224;2023-12-04T12:35:09;99344.72;;;8.10;75.18
46682;BME280;34101;53.430;-2.224;2023-12-04T12:37:37;99349.56;;;8.15;75.07
46682;BME280;34101;53.430;-2.224;2023-12-04T12:40:06;99352.74;;;8.10;75.02
46682;BME280;34101;53.430;-2.224;2023-12-04T12:42:34;99351.34;;;8.10;75.37
46682;BME280;34101;53.430;-2.224;2023-12-04T12:45:02;99348.91;;;8.11;75.17
46682;BME280;34101;53.430;-2.224;2023-12-04T12:47:30;99350.34;;;8.14;75.10
46682;BME280;34101;53.430;-2.224;2023-12-04T12:49:58;99351.06;;;8.11;74.97
46682;BME280;34101;53.430;-2.224;2023-12-04T12:52:29;99348.28;;;8.18;75.28
46682;BME280;34101;53.430;-2.224;2023-12-04T12:54:57;99351.53;;;8.20;75.14
46682;BME280;34101;53.430;-2.224;2023-12-04T12:57:24;99349.72;;;8.22;74.92
46682;BME280;34101;53.430;-2.224;2023-12-04T12:59:52;99347.06;;;8.21;75.08
46682;BME280;34101;53.430;-2.224;2023-12-04T13:02:20;99346.17;;;8.31;74.24
46682;BME280;34101;53.430;-2.224;2023-12-04T13:04:48;99344.21;;;8.30;74.86